Time;durP1;ratioP1;P1;durP2;ratioP2;P2;SDS_P1;SDS_P2;PMS_P1;PMS_P2;Temp;Humidity;BMP_temperature;BMP_pressure;BME280_temperature;BME280_humidity;BME280_pressure;Samples;Min_cycle;Max_cycle;Signal;HPM_P1;HPM_P2
2024/01/06 00:00:36;;;;;;;8.88;5.20;;;2.00;99.90;;;;;;5075573;28;20052;-46
2024/01/06 00:03:02;;;;;;;9.45;5.05;;;2.00;99.90;;;;;;5075538;28;20388;-46
2024/01/06 00:05:28;;;;;;;11.30;5.80;;;2.00;99.90;;;;;;5075716;28;20163;-46
2024/01/06 00:07:53;;;;;;;8.83;5.03;;;2.00;99.90;;;;;;5057693;28;20084;-46
2024/01/06 00:10:19;;;;;;;10.10;5.50;;;1.90;99.90;;;;;;5074954;28;20060;-47
2024/01/06 00:12:45;;;;;;;10.03;5.63;;;1.90;99.90;;;;;;5074909;28;20059;-46
2024/01/06 00:15:11;;;;;;;10.20;5.15;;;2.00;99.90;;;;;;5075285;28;20044;-46
2024/01/06 00:17:36;;;;;;;10.70;5.45;;;1.90;99.90;;;;;;5074108;28;20101;-46
2024/01/06 00:20:04;;;;;;;10.90;5.82;;;1.90;99.90;;;;;;5075217;28;20052;-46
2024/01/06 00:22:30;;;;;;;10.60;6.28;;;1.90;99.90;;;;;;5075342;28;20036;-46
2024/01/06 00:24:55;;;;;;;10.75;5.70;;;1.90;99.90;;;;;;5075084;28;20463;-46
2024/01/06 00:27:21;;;;;;;11.23;6.33;;;1.90;99.90;;;;;;5074898;28;20106;-46
2024/01/06 00:29:47;;;;;;;10.63;6.00;;;1.90;99.90;;;;;;5075141;28;20040;-46
2024/01/06 00:32:13;;;;;;;10.65;6.30;;;2.00;99.90;;;;;;5074782;28;20396;-46
2024/01/06 00:34:38;;;;;;;10.90;5.57;;;1.90;99.90;;;;;;5074858;28;20059;-46
2024/01/06 00:37:04;;;;;;;10.95;5.70;;;1.90;99.90;;;;;;5074964;28;20048;-48
2024/01/06 00:39:30;;;;;;;10.13;5.80;;;1.90;99.90;;;;;;5074839;28;20131;-47
2024/01/06 00:41:55;;;;;;;10.95;6.13;;;1.80;99.90;;;;;;5074567;28;20091;-46
2024/01/06 00:44:21;;;;;;;9.97;6.10;;;1.80;99.90;;;;;;5074781;28;20052;-47
2024/01/06 00:46:47;;;;;;;9.80;5.97;;;1.80;99.90;;;;;;5073779;28;20123;-46
2024/01/06 00:49:13;;;;;;;10.40;6.03;;;1.80;99.90;;;;;;5074480;28;20044;-46
2024/01/06 00:51:38;;;;;;;11.00;6.03;;;1.80;99.90;;;;;;5074532;28;20130;-46
2024/01/06 00:54:04;;;;;;;11.53;5.90;;;1.80;99.90;;;;;;5074446;28;20044;-46
2024/01/06 00:56:30;;;;;;;12.47;6.03;;;1.80;99.90;;;;;;5074369;28;20048;-46
2024/01/06 00:58:55;;;;;;;10.00;5.72;;;1.80;99.90;;;;;;5074170;28;20102;-47
2024/01/06 01:01:21;;;;;;;9.75;5.20;;;1.80;99.90;;;;;;5074557;28;20109;-46
2024/01/06 01:03:47;;;;;;;10.45;5.65;;;1.80;99.90;;;;;;5073234;28;20040;-46
2024/01/06 01:06:12;;;;;;;9.68;5.30;;;1.80;99.90;;;;;;5074525;28;20091;-46
2024/01/06 01:08:38;;;;;;;9.67;5.37;;;1.80;99.90;;;;;;5074142;28;20040;-46
2024/01/06 01:11:04;;;;;;;9.20;5.10;;;1.80;99.90;;;;;;5073993;28;20511;-47
2024/01/06 01:13:30;;;;;;;9.80;5.43;;;1.80;99.90;;;;;;5074231;28;20046;-49
2024/01/06 01:15:56;;;;;;;9.43;5.03;;;1.80;99.90;;;;;;5074542;28;20533;-48
2024/01/06 01:18:21;;;;;;;8.77;5.03;;;1.70;99.90;;;;;;5074556;28;20091;-46
2024/01/06 01:20:47;;;;;;;10.40;5.40;;;1.70;99.90;;;;;;5074192;28;20514;-50
2024/01/06 01:23:13;;;;;;;9.38;5.10;;;1.80;99.90;;;;;;5074079;28;20090;-49
2024/01/06 01:25:38;;;;;;;8.93;5.03;;;1.70;99.90;;;;;;5073916;28;20041;-47
2024/01/06 01:28:04;;;;;;;9.90;4.95;;;1.80;99.90;;;;;;5073849;28;20098;-47
2024/01/06 01:30:32;;;;;;;11.40;6.03;;;1.70;99.90;;;;;;5073693;28;20048;-48
2024/01/06 01:32:58;;;;;;;8.60;5.05;;;1.70;99.90;;;;;;5073864;28;20052;-46
2024/01/06 01:35:24;;;;;;;10.47;5.50;;;1.80;99.90;;;;;;5074151;28;20055;-47
2024/01/06 01:37:50;;;;;;;9.57;5.47;;;1.80;99.90;;;;;;5073845;28;20049;-47
2024/01/06 01:40:15;;;;;;;11.38;4.95;;;1.70;99.90;;;;;;5073793;28;20056;-46
2024/01/06 01:42:43;;;;;;;11.18;5.72;;;1.70;99.90;;;;;;5073817;28;20535;-48
2024/01/06 01:45:08;;;;;;;8.15;4.78;;;1.70;99.90;;;;;;5073763;28;20449;-47
2024/01/06 01:47:34;;;;;;;10.90;5.20;;;1.70;99.90;;;;;;5073654;28;20048;-46
2024/01/06 01:50:01;;;;;;;10.40;5.55;;;1.70;99.90;;;;;;5073669;28;20586;-46
2024/01/06 01:52:27;;;;;;;9.27;4.95;;;1.70;99.90;;;;;;5073686;28;20487;-46
2024/01/06 01:54:52;;;;;;;8.23;5.03;;;1.70;99.90;;;;;;5073523;28;20040;-46
2024/01/06 01:57:20;;;;;;;9.18;5.35;;;1.60;99.90;;;;;;5073428;28;20102;-46
2024/01/06 01:59:47;;;;;;;11.27;6.07;;;1.60;99.90;;;;;;5073926;28;20124;-46
2024/01/06 02:02:13;;;;;;;11.05;6.00;;;1.60;99.90;;;;;;5073635;28;20044;-46
2024/01/06 02:04:39;;;;;;;10.85;4.85;;;1.60;99.90;;;;;;5073592;28;20049;-46
2024/01/06 02:07:05;;;;;;;8.77;5.03;;;1.60;99.90;;;;;;5072729;28;20471;-46
2024/01/06 02:09:30;;;;;;;10.10;5.30;;;1.60;99.90;;;;;;5073188;28;20081;-46
2024/01/06 02:11:58;;;;;;;9.13;4.95;;;1.60;99.90;;;;;;5073720;28;20057;-45
2024/01/06 02:14:24;;;;;;;12.68;6.38;;;1.60;99.90;;;;;;5073254;28;20484;-46
2024/01/06 02:16:49;;;;;;;10.65;5.80;;;1.60;99.90;;;;;;5073679;28;20045;-48
2024/01/06 02:19:17;;;;;;;10.20;5.63;;;1.50;99.90;;;;;;5073350;28;20076;-46
2024/01/06 02:21:44;;;;;;;12.02;6.13;;;1.60;99.90;;;;;;5073441;28;20463;-46
2024/01/06 02:24:10;;;;;;;10.95;5.68;;;1.50;99.90;;;;;;5073061;28;20049;-48
2024/01/06 02:26:36;;;;;;;10.50;5.85;;;1.50;99.90;;;;;;5073329;28;20048;-46
2024/01/06 02:29:01;;;;;;;9.60;5.17;;;1.50;99.90;;;;;;5073808;28;20041;-46
2024/01/06 02:31:28;;;;;;;8.90;4.32;;;1.50;99.90;;;;;;5073144;28;20127;-46
2024/01/06 02:33:53;;;;;;;10.57;5.63;;;1.50;99.90;;;;;;5072020;28;20044;-47
2024/01/06 02:36:19;;;;;;;9.50;5.38;;;1.40;99.90;;;;;;5073371;28;20391;-46
2024/01/06 02:38:45;;;;;;;9.17;4.70;;;1.50;99.90;;;;;;5073224;28;20044;-46
2024/01/06 02:41:10;;;;;;;8.77;4.53;;;1.50;99.90;;;;;;5074597;28;20383;-46
2024/01/06 02:43:36;;;;;;;9.30;4.88;;;1.40;99.90;;;;;;5077093;28;20045;-47
2024/01/06 02:46:02;;;;;;;10.32;5.22;;;1.40;99.90;;;;;;5077316;28;20091;-47
2024/01/06 02:48:30;;;;;;;9.67;5.40;;;1.40;99.90;;;;;;5076764;28;20387;-46
2024/01/06 02:50:56;;;;;;;11.07;5.47;;;1.40;99.90;;;;;;5076879;28;20048;-46
2024/01/06 02:53:22;;;;;;;9.88;5.75;;;1.40;99.90;;;;;;5076598;28;20144;-47
2024/01/06 02:55:47;;;;;;;11.50;5.50;;;1.40;99.90;;;;;;5077022;28;20098;-49
2024/01/06 02:58:13;;;;;;;10.43;6.97;;;1.40;99.90;;;;;;5076875;28;20387;-49
2024/01/06 03:00:39;;;;;;;9.83;5.40;;;1.40;99.90;;;;;;5076754;28;20093;-49
2024/01/06 03:03:04;;;;;;;11.80;6.28;;;1.40;99.90;;;;;;5076456;28;20087;-46
2024/01/06 03:05:31;;;;;;;10.90;5.87;;;1.40;99.90;;;;;;5076640;28;20046;-46
2024/01/06 03:07:57;;;;;;;10.93;6.22;;;1.40;99.90;;;;;;5076270;28;20144;-49
2024/01/06 03:10:22;;;;;;;12.40;6.43;;;1.40;99.90;;;;;;5076743;28;20060;-47
2024/01/06 03:12:48;;;;;;;10.00;5.53;;;1.40;99.90;;;;;;5076682;28;20480;-46
2024/01/06 03:15:14;;;;;;;12.18;6.63;;;1.40;99.90;;;;;;5076318;28;20059;-47
2024/01/06 03:17:40;;;;;;;13.43;7.03;;;1.40;99.90;;;;;;5076433;28;20084;-47
2024/01/06 03:20:07;;;;;;;11.60;7.03;;;1.40;99.90;;;;;;5076376;28;20052;-46
2024/01/06 03:22:32;;;;;;;;;;;1.40;99.90;;;;;;5076524;28;20098;-47
2024/01/06 03:24:58;;;;;;;13.00;6.57;;;1.40;99.90;;;;;;5076273;28;19920;-47
2024/01/06 03:27:24;;;;;;;15.00;7.25;;;1.50;99.90;;;;;;5076501;28;20226;-47
2024/01/06 03:29:50;;;;;;;12.73;6.88;;;1.40;99.90;;;;;;5076436;28;20127;-46
2024/01/06 03:32:15;;;;;;;13.38;6.75;;;1.40;99.90;;;;;;5076269;28;20052;-46
2024/01/06 03:34:41;;;;;;;13.03;6.90;;;1.40;99.90;;;;;;5075849;28;20492;-46
2024/01/06 03:37:07;;;;;;;15.27;7.78;;;1.40;99.90;;;;;;5075828;28;20048;-46
2024/01/06 03:39:33;;;;;;;13.65;7.30;;;1.40;99.90;;;;;;5075750;28;20047;-47
2024/01/06 03:42:00;;;;;;;11.82;7.10;;;1.40;99.90;;;;;;5076113;28;20071;-46
2024/01/06 03:44:30;;;;;;;13.20;6.72;;;1.40;99.90;;;;;;5075993;28;20059;-46
2024/01/06 03:46:59;;;;;;;12.75;6.97;;;1.40;99.90;;;;;;5075761;28;20052;-46
2024/01/06 03:49:25;;;;;;;10.85;6.00;;;1.40;99.90;;;;;;5075624;28;20502;-46
2024/01/06 03:51:51;;;;;;;13.20;6.97;;;1.40;99.90;;;;;;5075219;28;20040;-46
2024/01/06 03:54:17;;;;;;;12.43;6.38;;;1.40;99.90;;;;;;5075961;28;20127;-47
2024/01/06 03:56:43;;;;;;;11.85;6.88;;;1.30;99.90;;;;;;5075667;28;20087;-48
2024/01/06 03:59:09;;;;;;;11.77;6.37;;;1.30;99.90;;;;;;5074770;28;20056;-48
2024/01/06 04:01:35;;;;;;;12.80;7.20;;;1.40;99.90;;;;;;5075504;28;20499;-46
2024/01/06 04:04:04;;;;;;;11.85;6.57;;;1.30;99.90;;;;;;5075553;28;20053;-48
2024/01/06 04:06:33;;;;;;;10.70;6.10;;;1.30;99.90;;;;;;5075770;28;20044;-46
2024/01/06 04:09:00;;;;;;;13.55;7.18;;;1.30;99.90;;;;;;5075487;28;20124;-47
2024/01/06 04:11:26;;;;;;;14.15;7.47;;;1.30;99.90;;;;;;5075476;28;20504;-47
2024/01/06 04:13:52;;;;;;;12.87;6.57;;;1.30;99.90;;;;;;5075390;28;20090;-47
2024/01/06 04:16:17;;;;;;;11.93;6.63;;;1.40;99.90;;;;;;5075398;28;20049;-48
2024/01/06 04:18:43;;;;;;;12.40;7.07;;;1.30;99.90;;;;;;5075072;28;20072;-47
2024/01/06 04:21:08;;;;;;;11.20;6.90;;;1.30;99.90;;;;;;5075040;28;20045;-50
2024/01/06 04:23:34;;;;;;;12.77;6.27;;;1.30;99.90;;;;;;5075230;28;20051;-46
2024/01/06 04:26:01;;;;;;;16.25;7.43;;;1.30;99.90;;;;;;5075254;28;20467;-48
2024/01/06 04:28:27;;;;;;;12.35;6.82;;;1.30;99.90;;;;;;5073998;28;20548;-46
2024/01/06 04:30:54;;;;;;;12.85;6.50;;;1.30;99.90;;;;;;5074869;28;20499;-47
2024/01/06 04:33:19;;;;;;;13.32;6.50;;;1.40;99.90;;;;;;5074836;28;20123;-47
2024/01/06 04:35:45;;;;;;;13.07;6.88;;;1.40;99.90;;;;;;5074643;28;20088;-46
2024/01/06 04:38:11;;;;;;;10.98;6.38;;;1.30;99.90;;;;;;5073991;28;20151;-46
2024/01/06 04:40:36;;;;;;;11.40;6.10;;;1.40;99.90;;;;;;5074861;28;20048;-46
2024/01/06 04:43:03;;;;;;;11.70;6.27;;;1.40;99.90;;;;;;5074951;28;20392;-47
2024/01/06 04:45:29;;;;;;;13.40;6.82;;;1.30;99.90;;;;;;5073832;28;20060;-46
2024/01/06 04:47:54;;;;;;;11.77;6.30;;;1.30;99.90;;;;;;5074490;28;20044;-46
2024/01/06 04:50:20;;;;;;;10.90;6.50;;;1.30;99.90;;;;;;5074503;28;20044;-46
2024/01/06 04:52:46;;;;;;;12.57;6.03;;;1.30;99.90;;;;;;5074597;28;20044;-46
2024/01/06 04:55:12;;;;;;;12.97;6.87;;;1.30;99.90;;;;;;5074276;28;20040;-47
2024/01/06 04:57:37;;;;;;;10.40;6.35;;;1.30;99.90;;;;;;5074655;28;20052;-46
2024/01/06 05:00:04;;;;;;;10.02;5.82;;;1.30;99.90;;;;;;5074333;28;20434;-46
2024/01/06 05:02:30;;;;;;;10.77;6.00;;;1.40;99.90;;;;;;5074036;28;20131;-46
2024/01/06 05:04:55;;;;;;;13.02;6.60;;;1.30;99.90;;;;;;5073315;28;20547;-46
2024/01/06 05:07:21;;;;;;;10.50;5.78;;;1.40;99.90;;;;;;5074334;28;20083;-46
2024/01/06 05:09:47;;;;;;;10.47;6.13;;;1.30;99.90;;;;;;5073897;28;20138;-46
2024/01/06 05:12:13;;;;;;;13.10;6.32;;;1.30;99.90;;;;;;5074552;28;20053;-46
2024/01/06 05:14:38;;;;;;;10.00;6.50;;;1.40;99.90;;;;;;5074174;28;20051;-47
2024/01/06 05:17:04;;;;;;;9.93;5.60;;;1.40;99.90;;;;;;5074157;28;20052;-48
2024/01/06 05:19:30;;;;;;;12.70;5.97;;;1.40;99.90;;;;;;5074091;28;20403;-45
2024/01/06 05:21:56;;;;;;;9.98;5.63;;;1.30;99.90;;;;;;5074125;28;20395;-46
2024/01/06 05:24:22;;;;;;;9.48;5.22;;;1.30;99.90;;;;;;5074091;28;20067;-45
2024/01/06 05:26:48;;;;;;;10.52;5.68;;;1.30;99.90;;;;;;5073906;28;20041;-46
2024/01/06 05:29:14;;;;;;;9.52;5.25;;;1.40;99.90;;;;;;5074052;28;20506;-45
2024/01/06 05:31:39;;;;;;;11.43;5.23;;;1.40;99.90;;;;;;5073851;28;20094;-46
2024/01/06 05:34:05;;;;;;;9.80;5.40;;;1.40;99.90;;;;;;5073681;28;20047;-46
2024/01/06 05:36:31;;;;;;;12.75;5.95;;;1.40;99.90;;;;;;5073868;28;20040;-46
2024/01/06 05:38:56;;;;;;;9.52;5.38;;;1.40;99.90;;;;;;5073521;28;20376;-46
2024/01/06 05:41:22;;;;;;;11.77;5.97;;;1.40;99.90;;;;;;5073916;28;20090;-47
2024/01/06 05:43:48;;;;;;;9.87;5.67;;;1.40;99.90;;;;;;5073896;28;20051;-45
2024/01/06 05:46:24;;;;;;;10.38;5.57;;;1.40;99.90;;;;;;5073646;28;20045;-46
2024/01/06 05:48:49;;;;;;;10.00;5.40;;;1.40;99.90;;;;;;5055814;28;20047;-46
2024/01/06 05:51:15;;;;;;;11.50;5.28;;;1.40;99.90;;;;;;5073657;28;20044;-47
2024/01/06 05:53:42;;;;;;;11.43;6.55;;;1.40;99.90;;;;;;5073604;28;20503;-46
2024/01/06 05:56:08;;;;;;;11.00;5.88;;;1.50;99.90;;;;;;5072430;28;20488;-46
2024/01/06 05:58:34;;;;;;;11.50;6.03;;;1.50;99.90;;;;;;5073523;28;20045;-46
2024/01/06 06:01:00;;;;;;;10.70;6.20;;;1.50;99.90;;;;;;5073390;28;20058;-46
2024/01/06 06:03:26;;;;;;;12.07;6.23;;;1.50;99.90;;;;;;5073280;28;20036;-47
2024/01/06 06:05:52;;;;;;;10.90;6.43;;;1.50;99.90;;;;;;5073590;28;20051;-46
2024/01/06 06:08:18;;;;;;;12.70;6.47;;;1.50;99.90;;;;;;5073490;28;20582;-46
2024/01/06 06:11:00;;;;;;;11.37;6.50;;;1.50;99.90;;;;;;5073185;28;20052;-46
2024/01/06 06:13:27;;;;;;;12.35;6.45;;;1.50;99.90;;;;;;5073471;28;20056;-46
2024/01/06 06:15:52;;;;;;;11.05;6.53;;;1.50;99.90;;;;;;5074144;28;20048;-46
2024/01/06 06:18:18;;;;;;;14.40;7.43;;;1.50;99.90;;;;;;5077887;28;20045;-45
2024/01/06 06:20:44;;;;;;;12.27;6.93;;;1.50;99.90;;;;;;5077838;28;20055;-46
2024/01/06 06:23:10;;;;;;;11.05;6.60;;;1.50;99.90;;;;;;5077651;28;20083;-46
2024/01/06 06:25:38;;;;;;;12.30;7.20;;;1.50;99.90;;;;;;5077458;28;20563;-46
2024/01/06 06:28:04;;;;;;;11.93;6.43;;;1.60;99.90;;;;;;5077280;28;20055;-46
2024/01/06 06:30:30;;;;;;;11.63;6.97;;;1.50;99.90;;;;;;5077025;28;20049;-45
2024/01/06 06:32:56;;;;;;;13.50;6.95;;;1.60;99.90;;;;;;5076294;28;20055;-46
2024/01/06 06:35:23;;;;;;;11.75;6.93;;;1.50;99.90;;;;;;5077159;28;20041;-45
2024/01/06 06:37:49;;;;;;;12.88;6.82;;;1.60;99.90;;;;;;5077211;28;20095;-46
2024/01/06 06:40:15;;;;;;;11.85;6.95;;;1.60;99.90;;;;;;5077076;28;20056;-55
2024/01/06 06:42:40;;;;;;;12.35;7.18;;;1.60;99.90;;;;;;5077047;28;20056;-46
2024/01/06 06:45:07;;;;;;;12.95;6.90;;;1.60;99.90;;;;;;5076880;28;20041;-51
2024/01/06 06:47:32;;;;;;;12.00;7.10;;;1.60;99.90;;;;;;5077186;28;20064;-48
2024/01/06 06:49:58;;;;;;;13.55;7.68;;;1.60;99.90;;;;;;5077208;28;20395;-46
2024/01/06 06:52:24;;;;;;;13.73;7.80;;;1.60;99.90;;;;;;5077043;28;20161;-49
2024/01/06 06:54:49;;;;;;;12.93;8.13;;;1.60;99.90;;;;;;5076683;28;20438;-48
2024/01/06 06:57:15;;;;;;;13.38;7.63;;;1.50;99.90;;;;;;5076797;28;20071;-50
2024/01/06 06:59:41;;;;;;;13.32;7.63;;;1.60;99.90;;;;;;5076646;28;20076;-49
2024/01/06 07:02:07;;;;;;;14.98;8.15;;;1.60;99.90;;;;;;5075984;28;20040;-46
2024/01/06 07:04:32;;;;;;;12.63;7.03;;;1.60;99.90;;;;;;5076877;28;20050;-49
2024/01/06 07:06:58;;;;;;;13.27;8.20;;;1.60;99.90;;;;;;5076698;28;20441;-48
2024/01/06 07:09:24;;;;;;;15.20;8.63;;;1.60;99.90;;;;;;5075216;28;20057;-49
2024/01/06 07:11:50;;;;;;;15.88;8.23;;;1.60;99.90;;;;;;5076614;28;20055;-46
2024/01/06 07:14:16;;;;;;;13.15;7.68;;;1.60;99.90;;;;;;5076446;28;20044;-46
2024/01/06 07:16:42;;;;;;;13.63;7.90;;;1.70;99.90;;;;;;5076533;28;20041;-48
2024/01/06 07:19:08;;;;;;;16.75;8.65;;;1.60;99.90;;;;;;5076373;28;20835;-45
2024/01/06 07:21:33;;;;;;;16.77;8.15;;;1.60;99.90;;;;;;5076371;28;20094;-46
2024/01/06 07:24:01;;;;;;;15.48;8.75;;;1.70;99.90;;;;;;5076227;28;20483;-46
2024/01/06 07:26:27;;;;;;;18.25;9.45;;;1.60;99.90;;;;;;5075681;28;20058;-46
2024/01/06 07:28:53;;;;;;;15.65;8.98;;;1.70;99.90;;;;;;5075869;28;20048;-46
2024/01/06 07:31:18;;;;;;;15.95;9.10;;;1.70;99.90;;;;;;5076493;28;20071;-46
2024/01/06 07:33:44;;;;;;;15.80;8.75;;;1.70;99.90;;;;;;5076145;28;20063;-47
2024/01/06 07:36:10;;;;;;;16.63;9.43;;;1.70;99.90;;;;;;5075072;28;20391;-46
2024/01/06 07:38:36;;;;;;;17.20;9.98;;;1.60;99.90;;;;;;5076031;28;20495;-45
2024/01/06 07:41:04;;;;;;;15.77;8.87;;;1.70;99.90;;;;;;5075959;28;20138;-46
2024/01/06 07:43:30;;;;;;;16.75;8.95;;;1.70;99.90;;;;;;5075868;28;20052;-45
2024/01/06 07:45:56;;;;;;;15.90;8.60;;;1.70;99.90;;;;;;5076016;28;20045;-45
2024/01/06 07:48:22;;;;;;;16.30;9.47;;;1.70;99.90;;;;;;5075769;28;20036;-45
2024/01/06 07:50:47;;;;;;;18.37;9.87;;;1.70;99.90;;;;;;5075955;28;20102;-46
2024/01/06 07:53:16;;;;;;;19.07;9.30;;;1.70;99.90;;;;;;5076055;28;20044;-47
2024/01/06 07:55:42;;;;;;;15.10;8.57;;;1.70;99.90;;;;;;5075768;28;20044;-46
2024/01/06 07:58:08;;;;;;;16.83;9.57;;;1.70;99.90;;;;;;5075531;28;20052;-46
2024/01/06 08:00:34;;;;;;;15.80;8.73;;;1.70;99.90;;;;;;5074842;28;20052;-50
2024/01/06 08:03:00;;;;;;;18.50;10.20;;;1.70;99.90;;;;;;5075634;28;20044;-48
2024/01/06 08:05:25;;;;;;;18.00;9.70;;;1.70;99.90;;;;;;5074613;28;20530;-49
2024/01/06 08:07:52;;;;;;;16.00;8.87;;;1.70;99.90;;;;;;5075585;28;20079;-47
2024/01/06 08:10:18;;;;;;;16.27;8.73;;;1.70;99.90;;;;;;5075491;28;20060;-47
2024/01/06 08:12:43;;;;;;;16.08;8.45;;;1.70;99.90;;;;;;5075121;28;20040;-48
2024/01/06 08:15:09;;;;;;;17.13;9.13;;;1.70;99.90;;;;;;5075316;28;20515;-48
2024/01/06 08:17:36;;;;;;;17.50;9.57;;;1.70;99.90;;;;;;5075106;28;20060;-47
2024/01/06 08:20:03;;;;;;;15.70;9.35;;;1.70;99.90;;;;;;5075148;28;20037;-47
2024/01/06 08:22:29;;;;;;;17.65;9.23;;;1.70;99.90;;;;;;5075255;28;20075;-47
2024/01/06 08:24:54;;;;;;;14.85;8.82;;;1.70;99.90;;;;;;5074835;28;20492;-46
2024/01/06 08:27:21;;;;;;;16.70;9.70;;;1.80;99.90;;;;;;5074986;28;20044;-47
2024/01/06 08:29:47;;;;;;;17.25;9.27;;;1.70;99.90;;;;;;5074967;28;20119;-46
2024/01/06 08:32:14;;;;;;;16.87;9.00;;;1.70;99.90;;;;;;5075540;28;20174;-47
2024/01/06 08:34:40;;;;;;;16.08;8.75;;;1.80;99.90;;;;;;5075225;28;20040;-46
2024/01/06 08:37:06;;;;;;;14.88;8.85;;;1.70;99.90;;;;;;5074823;28;20399;-47
2024/01/06 08:39:32;;;;;;;17.35;9.38;;;1.70;99.90;;;;;;5073850;28;20041;-46
2024/01/06 08:41:57;;;;;;;17.13;9.60;;;1.90;99.90;;;;;;5073823;28;20048;-46
2024/01/06 08:44:23;;;;;;;16.07;8.33;;;1.80;99.90;;;;;;5074779;28;20040;-45
2024/01/06 08:46:48;;;;;;;15.20;9.20;;;1.80;99.90;;;;;;5074703;28;20123;-46
2024/01/06 08:49:14;;;;;;;19.23;9.15;;;1.70;99.90;;;;;;5074584;28;20131;-47
2024/01/06 08:51:40;;;;;;;15.90;8.40;;;1.80;99.90;;;;;;5073417;28;20041;-46
2024/01/06 08:54:06;;;;;;;13.77;8.30;;;1.80;99.90;;;;;;5073259;28;20044;-46
2024/01/06 08:56:33;;;;;;;18.60;8.87;;;1.80;99.90;;;;;;5074365;28;20059;-48
2024/01/06 08:58:59;;;;;;;13.90;8.63;;;1.80;99.90;;;;;;5075291;28;20050;-46
2024/01/06 09:01:25;;;;;;;16.77;8.55;;;1.80;99.90;;;;;;5074334;28;20535;-45
2024/01/06 09:03:51;;;;;;;14.77;7.85;;;1.80;99.90;;;;;;5074368;28;20067;-46
2024/01/06 09:06:16;;;;;;;14.87;8.83;;;1.80;99.90;;;;;;5074265;28;20112;-46
2024/01/06 09:08:42;;;;;;;17.48;8.90;;;1.80;99.90;;;;;;5072862;28;20132;-46
2024/01/06 09:11:08;;;;;;;16.13;8.93;;;1.80;99.90;;;;;;5074530;28;20475;-47
2024/01/06 09:13:33;;;;;;;14.53;8.30;;;1.80;99.90;;;;;;5074255;28;20404;-47
2024/01/06 09:16:00;;;;;;;16.13;9.10;;;1.80;99.90;;;;;;5074140;28;20057;-46
2024/01/06 09:18:28;;;;;;;15.98;8.75;;;1.90;99.90;;;;;;5074147;28;20045;-45
2024/01/06 09:20:54;;;;;;;14.98;8.68;;;1.80;99.90;;;;;;5073963;28;20051;-46
2024/01/06 09:23:21;;;;;;;14.23;8.57;;;1.80;99.90;;;;;;5073890;28;20052;-45
2024/01/06 09:25:49;;;;;;;15.88;8.40;;;1.80;99.90;;;;;;5073929;28;20118;-46
2024/01/06 09:28:15;;;;;;;12.70;8.15;;;1.90;99.90;;;;;;5073651;28;20451;-46
2024/01/06 09:30:41;;;;;;;17.80;9.43;;;1.90;99.90;;;;;;5073878;28;20044;-47
2024/01/06 09:33:10;;;;;;;16.80;8.77;;;1.90;99.90;;;;;;5074053;28;20094;-48
2024/01/06 09:35:35;;;;;;;16.02;9.02;;;1.90;99.90;;;;;;5072726;28;20131;-49
2024/01/06 09:38:01;;;;;;;15.30;8.18;;;1.90;99.90;;;;;;5073787;28;20144;-49
2024/01/06 09:40:30;;;;;;;16.90;8.50;;;1.80;99.90;;;;;;5073888;28;20052;-46
2024/01/06 09:42:56;;;;;;;14.57;8.30;;;1.90;99.90;;;;;;5073730;28;20041;-48
2024/01/06 09:45:22;;;;;;;16.92;8.68;;;1.90;99.90;;;;;;5073772;28;20105;-48
2024/01/06 09:47:51;;;;;;;14.50;8.07;;;1.90;99.90;;;;;;5073634;28;20044;-47
2024/01/06 09:50:21;;;;;;;17.05;8.95;;;1.90;99.90;;;;;;5073372;28;20040;-48
2024/01/06 09:52:55;;;;;;;16.20;8.50;;;1.90;99.90;;;;;;5073515;28;20078;-47
2024/01/06 09:55:28;;;;;;;15.52;8.65;;;1.90;99.90;;;;;;5073798;28;20123;-47
2024/01/06 09:57:54;;;;;;;15.27;8.82;;;1.90;99.90;;;;;;5074132;28;20046;-48
2024/01/06 10:00:21;;;;;;;16.23;9.02;;;1.90;99.90;;;;;;5073619;28;20457;-49
2024/01/06 10:02:48;;;;;;;15.70;8.50;;;1.90;99.90;;;;;;5073604;28;20099;-50
2024/01/06 10:05:16;;;;;;;14.30;8.30;;;1.80;99.90;;;;;;5072326;28;20105;-49
2024/01/06 10:07:46;;;;;;;16.05;8.07;;;1.90;99.90;;;;;;5073554;28;20145;-46
2024/01/06 10:10:12;;;;;;;13.27;7.85;;;1.90;99.90;;;;;;5073155;28;20502;-46
2024/01/06 10:12:41;;;;;;;13.02;7.32;;;1.80;99.90;;;;;;5073782;28;20056;-46
2024/01/06 10:15:08;;;;;;;15.88;8.00;;;1.90;99.90;;;;;;5073376;28;20052;-46
2024/01/06 10:17:38;;;;;;;13.95;8.00;;;1.90;99.90;;;;;;5073296;28;20055;-46
2024/01/06 10:20:15;;;;;;;15.43;8.15;;;1.90;99.90;;;;;;5073637;28;20049;-46
2024/01/06 10:22:41;;;;;;;14.27;7.50;;;2.00;99.90;;;;;;5073848;28;20045;-47
2024/01/06 10:25:12;;;;;;;13.90;7.88;;;1.90;99.90;;;;;;5073347;28;20088;-46
2024/01/06 10:27:40;;;;;;;16.08;8.45;;;1.90;99.90;;;;;;5074025;28;20182;-46
2024/01/06 10:30:09;;;;;;;13.70;8.10;;;1.90;99.90;;;;;;5073222;28;20067;-47
2024/01/06 10:32:36;;;;;;;13.40;7.65;;;1.90;99.90;;;;;;5073182;28;20057;-47
2024/01/06 10:35:03;;;;;;;14.82;8.35;;;1.90;99.90;;;;;;5073324;28;20052;-46
2024/01/06 10:37:29;;;;;;;15.45;8.48;;;1.90;99.90;;;;;;5073258;28;20431;-46
2024/01/06 10:40:12;;;;;;;16.13;8.40;;;1.90;99.90;;;;;;5073016;28;20476;-46
2024/01/06 10:42:39;;;;;;;14.50;7.45;;;1.90;99.90;;;;;;5072947;28;20044;-47
2024/01/06 10:45:10;;;;;;;14.73;7.93;;;1.90;99.90;;;;;;5073056;28;20105;-47
2024/01/06 10:47:37;;;;;;;13.57;7.70;;;1.90;99.90;;;;;;5073100;28;20052;-47
2024/01/06 10:50:03;;;;;;;14.55;8.48;;;1.90;99.90;;;;;;5072967;28;20055;-46
2024/01/06 10:52:29;;;;;;;14.00;7.45;;;1.90;99.90;;;;;;5073121;28;20488;-48
2024/01/06 10:54:55;;;;;;;14.70;8.20;;;1.90;99.90;;;;;;5071868;28;20049;-47
2024/01/06 10:57:27;;;;;;;13.32;7.85;;;1.80;99.90;;;;;;5071488;28;20291;-48
2024/01/06 10:59:53;;;;;;;14.88;8.23;;;1.90;99.90;;;;;;5073122;28;20476;-47
2024/01/06 11:02:19;;;;;;;13.38;6.60;;;1.90;99.90;;;;;;5074905;28;20055;-48
2024/01/06 11:04:46;;;;;;;12.30;6.45;;;1.80;99.90;;;;;;5076638;28;20055;-46
2024/01/06 11:07:15;;;;;;;12.02;6.93;;;1.80;99.90;;;;;;5076569;28;20048;-46
2024/01/06 11:09:51;;;;;;;12.07;6.22;;;1.80;99.90;;;;;;5076566;28;20059;-46
2024/01/06 11:12:18;;;;;;;10.57;6.57;;;1.80;99.90;;;;;;5076328;28;20048;-46
2024/01/06 11:14:45;;;;;;;10.95;5.95;;;1.90;99.90;;;;;;5076439;28;20051;-47
2024/01/06 11:17:11;;;;;;;13.18;6.80;;;1.80;99.90;;;;;;5075505;28;20091;-46
2024/01/06 11:19:37;;;;;;;9.73;5.97;;;1.80;99.90;;;;;;5076420;28;20113;-46
2024/01/06 11:22:21;;;;;;;10.02;5.95;;;1.90;99.90;;;;;;5076465;28;20053;-46
2024/01/06 11:24:49;;;;;;;12.70;6.50;;;1.90;99.90;;;;;;5076625;28;20127;-46
2024/01/06 11:27:22;;;;;;;12.35;6.65;;;1.80;99.90;;;;;;5076665;28;20052;-46
2024/01/06 11:29:51;;;;;;;8.82;5.28;;;1.90;99.90;;;;;;5075059;28;20104;-46
2024/01/06 11:32:38;;;;;;;9.88;5.50;;;1.90;99.90;;;;;;5075066;28;20101;-46
2024/01/06 11:35:09;;;;;;;10.50;6.00;;;1.90;99.90;;;;;;5074930;28;20131;-48
2024/01/06 11:37:41;;;;;;;10.00;5.55;;;1.90;99.90;;;;;;5076085;28;20495;-47
2024/01/06 11:40:15;;;;;;;8.88;4.82;;;2.00;99.90;;;;;;5076023;28;20076;-47
2024/01/06 11:42:42;;;;;;;9.77;5.32;;;1.90;99.90;;;;;;5076381;28;20048;-46
2024/01/06 11:45:08;;;;;;;10.43;5.68;;;1.90;99.90;;;;;;5075779;28;20053;-46
2024/01/06 11:47:35;;;;;;;8.75;5.18;;;1.90;99.90;;;;;;5075659;28;20044;-46
2024/01/06 11:50:04;;;;;;;13.38;5.90;;;1.90;99.90;;;;;;5075807;28;20052;-47
2024/01/06 11:52:34;;;;;;;10.13;5.10;;;1.90;99.90;;;;;;5074711;28;20048;-49
2024/01/06 11:55:01;;;;;;;10.55;5.53;;;1.90;99.90;;;;;;5076046;28;20426;-47
2024/01/06 11:57:30;;;;;;;9.88;5.78;;;1.90;99.90;;;;;;5075732;28;20055;-46
2024/01/06 11:59:56;;;;;;;9.85;5.60;;;1.90;99.90;;;;;;5075469;28;20047;-47
2024/01/06 12:02:22;;;;;;;9.02;4.63;;;1.90;99.90;;;;;;5075269;28;20399;-47
2024/01/06 12:04:56;;;;;;;10.30;5.38;;;1.90;99.90;;;;;;5075561;28;20051;-48
2024/01/06 12:07:22;;;;;;;9.68;5.53;;;1.90;99.90;;;;;;5075573;28;20048;-47
2024/01/06 12:10:01;;;;;;;9.20;5.03;;;2.00;99.90;;;;;;5075064;28;20060;-48
2024/01/06 12:12:26;;;;;;;9.73;5.40;;;1.90;99.90;;;;;;5075110;28;20048;-47
2024/01/06 12:14:52;;;;;;;11.65;5.22;;;1.80;99.90;;;;;;5075048;28;20125;-48
2024/01/06 12:17:21;;;;;;;10.43;5.03;;;1.90;99.90;;;;;;5075816;28;20045;-48
2024/01/06 12:19:47;;;;;;;9.77;5.50;;;1.90;99.90;;;;;;5075148;28;20408;-49
2024/01/06 12:22:15;;;;;;;9.25;5.00;;;1.80;99.90;;;;;;5075113;28;20131;-51
2024/01/06 12:24:45;;;;;;;10.20;4.95;;;1.80;99.90;;;;;;5074981;28;20083;-49
2024/01/06 12:27:11;;;;;;;7.95;4.63;;;1.80;99.90;;;;;;5074802;28;20131;-50
2024/01/06 12:29:43;;;;;;;9.25;4.70;;;1.80;99.90;;;;;;5074904;28;20080;-51
2024/01/06 12:32:10;;;;;;;10.57;5.55;;;1.80;99.90;;;;;;5075306;28;20081;-47
2024/01/06 12:34:36;;;;;;;8.75;5.03;;;1.80;99.90;;;;;;5074870;28;20102;-49
2024/01/06 12:37:03;;;;;;;8.53;4.77;;;1.80;99.90;;;;;;5074126;28;20091;-48
2024/01/06 12:39:29;;;;;;;9.45;5.10;;;1.70;99.90;;;;;;5074940;28;20441;-46
2024/01/06 12:41:56;;;;;;;10.40;5.15;;;1.70;99.90;;;;;;5074531;28;20056;-50
2024/01/06 12:44:23;;;;;;;9.45;4.75;;;1.70;99.90;;;;;;5074537;28;20510;-47